Terminal Aerodrome Forecast
Issued by NWS

Home | Current Version | Previous Version | Text Only | Print | Product List | Glossary On
Versions: 1 2 3 4 5 6 7 8 9 10 11 12 13 14 15
000
FTUS45 KRIW 282300
TAFBPI
TAF
KBPI 282324Z 2900/2924 VRB10G15KT P6SM VCSH SCT080 OVC120
     FM291400 30008KT P6SM -SHRA SCT040 BKN070
     FM291800 22007KT P6SM -SHRA SCT030 BKN050=

USA.gov is the U.S. government's official web portal to all federal, state and local government web resources and services.